EJU486M LFLL-LFBD
Flight info
| Callsign | EJU486M |
|---|---|
| Flight time | 0h 47m |
| Altitude | 27000 |
| Route | BELEP8N/35L BELEP H38 TIS DCT LMG |
| Aircraft | A320/M-SDE2E3FGHIJ1RWXYZ/LB1 |
Departure
| Time | 2026-05-08 12:31 |
|---|---|
| Airport | Lyon Saint-Exupéry Airport (LFLL) |
Arrival
| Time | 2026-05-08 13:18 |
|---|---|
| Airport | Bordeaux–Mérignac Airport (LFBD) |
| Time | Latitude | Longitude | Altitude | Speed | Heading |
|---|---|---|---|---|---|
| 2026-05-08 12:30 | 45.78832 | 4.72517 | 14652 ft | 343 kts | 250° |
| 2026-05-08 12:31 | 45.78275 | 4.69184 | 15302 ft | 346 kts | 262° |
| 2026-05-08 12:31 | 45.78209 | 4.65724 | 15945 ft | 349 kts | 271° |
| 2026-05-08 12:31 | 45.78288 | 4.62242 | 16601 ft | 351 kts | 270° |
| 2026-05-08 12:31 | 45.78360 | 4.58743 | 17269 ft | 353 kts | 270° |
| 2026-05-08 12:32 | 45.78429 | 4.55224 | 17924 ft | 355 kts | 270° |
| 2026-05-08 12:32 | 45.78498 | 4.51682 | 18521 ft | 357 kts | 270° |
| 2026-05-08 12:32 | 45.78565 | 4.48108 | 19075 ft | 359 kts | 270° |
| 2026-05-08 12:32 | 45.78631 | 4.44520 | 19621 ft | 361 kts | 270° |
| 2026-05-08 12:33 | 45.78697 | 4.40917 | 20161 ft | 364 kts | 270° |
| 2026-05-08 12:33 | 45.78761 | 4.37284 | 20699 ft | 366 kts | 270° |
| 2026-05-08 12:33 | 45.78823 | 4.33617 | 21163 ft | 370 kts | 270° |
| 2026-05-08 12:33 | 45.78888 | 4.29911 | 21668 ft | 373 kts | 271° |
| 2026-05-08 12:34 | 45.78955 | 4.26188 | 22168 ft | 375 kts | 271° |
| 2026-05-08 12:34 | 45.79018 | 4.22440 | 22672 ft | 378 kts | 271° |
| 2026-05-08 12:34 | 45.79082 | 4.18667 | 23169 ft | 380 kts | 271° |
| 2026-05-08 12:34 | 45.79150 | 4.14872 | 23634 ft | 382 kts | 273° |
| 2026-05-08 12:35 | 45.79489 | 4.11138 | 24013 ft | 384 kts | 282° |
| 2026-05-08 12:35 | 45.80082 | 4.07398 | 24432 ft | 386 kts | 283° |
| 2026-05-08 12:35 | 45.80676 | 4.03645 | 24843 ft | 387 kts | 283° |
| 2026-05-08 12:35 | 45.81270 | 3.99878 | 25252 ft | 388 kts | 283° |
| 2026-05-08 12:36 | 45.81864 | 3.96100 | 25654 ft | 389 kts | 283° |
| 2026-05-08 12:36 | 45.82459 | 3.92309 | 26054 ft | 391 kts | 283° |
| 2026-05-08 12:36 | 45.83057 | 3.88503 | 26432 ft | 392 kts | 283° |
| 2026-05-08 12:36 | 45.83655 | 3.84686 | 26831 ft | 393 kts | 283° |
| 2026-05-08 12:37 | 45.84253 | 3.80857 | 26970 ft | 392 kts | 283° |
| 2026-05-08 12:37 | 45.84833 | 3.77127 | 26991 ft | 376 kts | 283° |
| 2026-05-08 12:37 | 45.85396 | 3.73505 | 26990 ft | 370 kts | 283° |
| 2026-05-08 12:37 | 45.85952 | 3.69916 | 26992 ft | 368 kts | 283° |
| 2026-05-08 12:38 | 45.86504 | 3.66339 | 26991 ft | 367 kts | 283° |
| 2026-05-08 12:38 | 45.87051 | 3.62766 | 26992 ft | 367 kts | 283° |
| 2026-05-08 12:38 | 45.87600 | 3.59188 | 26985 ft | 367 kts | 283° |
| 2026-05-08 12:38 | 45.88074 | 3.55595 | 26983 ft | 367 kts | 277° |
| 2026-05-08 12:39 | 45.88139 | 3.51930 | 26988 ft | 368 kts | 270° |
| 2026-05-08 12:39 | 45.88075 | 3.48254 | 26983 ft | 368 kts | 270° |
| 2026-05-08 12:39 | 45.88036 | 3.45819 | 26985 ft | 368 kts | 270° |
| 2026-05-08 12:39 | 45.87978 | 3.42148 | 26972 ft | 368 kts | 270° |
| 2026-05-08 12:40 | 45.87918 | 3.38474 | 26972 ft | 368 kts | 270° |
| 2026-05-08 12:40 | 45.87859 | 3.34805 | 26970 ft | 368 kts | 270° |
| 2026-05-08 12:40 | 45.87797 | 3.31135 | 26968 ft | 368 kts | 270° |
| 2026-05-08 12:40 | 45.87734 | 3.27465 | 26969 ft | 368 kts | 270° |
| 2026-05-08 12:41 | 45.87667 | 3.23797 | 26965 ft | 368 kts | 270° |
| 2026-05-08 12:41 | 45.87599 | 3.20129 | 26963 ft | 368 kts | 270° |
| 2026-05-08 12:41 | 45.87531 | 3.16458 | 26963 ft | 368 kts | 270° |
| 2026-05-08 12:41 | 45.87464 | 3.12789 | 26963 ft | 368 kts | 270° |
| 2026-05-08 12:42 | 45.87397 | 3.09110 | 26963 ft | 368 kts | 270° |
| 2026-05-08 12:42 | 45.87330 | 3.05435 | 26962 ft | 369 kts | 270° |
| 2026-05-08 12:42 | 45.87258 | 3.01757 | 26962 ft | 369 kts | 270° |
| 2026-05-08 12:42 | 45.87183 | 2.98078 | 26962 ft | 369 kts | 270° |
| 2026-05-08 12:43 | 45.87106 | 2.94402 | 26962 ft | 369 kts | 270° |
| 2026-05-08 12:43 | 45.87027 | 2.90715 | 26964 ft | 369 kts | 270° |
| 2026-05-08 12:43 | 45.86951 | 2.87039 | 26964 ft | 369 kts | 270° |
| 2026-05-08 12:43 | 45.86876 | 2.83360 | 26970 ft | 369 kts | 270° |
| 2026-05-08 12:44 | 45.86798 | 2.79681 | 26975 ft | 369 kts | 270° |
| 2026-05-08 12:44 | 45.86719 | 2.75994 | 26974 ft | 369 kts | 270° |
| 2026-05-08 12:44 | 45.86639 | 2.72315 | 26971 ft | 369 kts | 269° |
| 2026-05-08 12:44 | 45.86557 | 2.68683 | 26971 ft | 370 kts | 269° |
| 2026-05-08 12:45 | 45.86472 | 2.64999 | 26967 ft | 370 kts | 269° |
| 2026-05-08 12:45 | 45.86386 | 2.61314 | 26967 ft | 370 kts | 269° |
| 2026-05-08 12:45 | 45.86297 | 2.57626 | 26968 ft | 370 kts | 269° |
| 2026-05-08 12:45 | 45.86208 | 2.53937 | 26968 ft | 370 kts | 269° |
| 2026-05-08 12:46 | 45.86121 | 2.50246 | 26970 ft | 370 kts | 269° |
| 2026-05-08 12:46 | 45.86033 | 2.46557 | 26969 ft | 370 kts | 269° |
| 2026-05-08 12:46 | 45.85943 | 2.42868 | 26970 ft | 370 kts | 269° |
| 2026-05-08 12:46 | 45.85849 | 2.39174 | 26972 ft | 370 kts | 269° |
| 2026-05-08 12:47 | 45.85755 | 2.35484 | 26965 ft | 370 kts | 269° |
| 2026-05-08 12:47 | 45.85662 | 2.31794 | 26966 ft | 370 kts | 269° |
| 2026-05-08 12:47 | 45.85567 | 2.28100 | 26962 ft | 371 kts | 269° |
| 2026-05-08 12:47 | 45.85472 | 2.24403 | 26962 ft | 371 kts | 269° |
| 2026-05-08 12:48 | 45.85374 | 2.20707 | 26963 ft | 371 kts | 269° |
| 2026-05-08 12:48 | 45.85274 | 2.16999 | 26966 ft | 372 kts | 269° |
| 2026-05-08 12:48 | 45.85172 | 2.13292 | 26967 ft | 372 kts | 269° |
| 2026-05-08 12:48 | 45.85068 | 2.09587 | 26968 ft | 372 kts | 269° |
| 2026-05-08 12:49 | 45.84964 | 2.05886 | 26965 ft | 372 kts | 269° |
| 2026-05-08 12:49 | 45.84858 | 2.02179 | 26963 ft | 372 kts | 269° |
| 2026-05-08 12:49 | 45.84751 | 1.98474 | 26963 ft | 372 kts | 269° |
| 2026-05-08 12:49 | 45.84644 | 1.94772 | 26959 ft | 372 kts | 268° |
| 2026-05-08 12:50 | 45.84538 | 1.91062 | 26961 ft | 372 kts | 268° |
| 2026-05-08 12:50 | 45.84429 | 1.87349 | 26960 ft | 373 kts | 268° |
| 2026-05-08 12:50 | 45.84320 | 1.83634 | 26962 ft | 373 kts | 268° |
| 2026-05-08 12:50 | 45.84211 | 1.79964 | 26962 ft | 373 kts | 268° |
| 2026-05-08 12:51 | 45.84096 | 1.76245 | 26964 ft | 374 kts | 268° |
| 2026-05-08 12:51 | 45.83863 | 1.68802 | 26962 ft | 374 kts | 268° |
| 2026-05-08 12:51 | 45.83747 | 1.65080 | 26964 ft | 374 kts | 268° |
| 2026-05-08 12:52 | 45.83631 | 1.61353 | 26977 ft | 374 kts | 268° |
| 2026-05-08 12:52 | 45.83392 | 1.53906 | 26959 ft | 374 kts | 267° |
| 2026-05-08 12:52 | 45.83268 | 1.50177 | 26957 ft | 375 kts | 267° |
| 2026-05-08 12:53 | 45.83142 | 1.46443 | 26952 ft | 375 kts | 267° |
| 2026-05-08 12:53 | 45.83015 | 1.42707 | 26951 ft | 375 kts | 267° |
| 2026-05-08 12:53 | 45.82888 | 1.38967 | 26950 ft | 376 kts | 267° |
| 2026-05-08 12:53 | 45.82760 | 1.35223 | 26950 ft | 376 kts | 267° |
| 2026-05-08 12:54 | 45.82630 | 1.31482 | 26951 ft | 376 kts | 267° |
| 2026-05-08 12:54 | 45.82500 | 1.27741 | 26951 ft | 376 kts | 267° |
| 2026-05-08 12:54 | 45.82369 | 1.23996 | 26952 ft | 376 kts | 267° |
| 2026-05-08 12:54 | 45.82238 | 1.20249 | 26952 ft | 376 kts | 267° |
| 2026-05-08 12:55 | 45.82105 | 1.16506 | 26957 ft | 376 kts | 266° |
| 2026-05-08 12:55 | 45.81967 | 1.12760 | 26952 ft | 377 kts | 266° |
| 2026-05-08 12:55 | 45.81829 | 1.09004 | 26950 ft | 377 kts | 266° |
| 2026-05-08 12:55 | 45.81519 | 1.05272 | 26949 ft | 377 kts | 257° |
| 2026-05-08 12:56 | 45.80725 | 1.01697 | 26949 ft | 378 kts | 246° |
| 2026-05-08 12:56 | 45.79466 | 0.98397 | 26949 ft | 379 kts | 236° |
| 2026-05-08 12:56 | 45.77918 | 0.95340 | 26949 ft | 379 kts | 234° |
| 2026-05-08 12:56 | 45.76365 | 0.92289 | 26941 ft | 379 kts | 234° |
| 2026-05-08 12:57 | 45.74811 | 0.89234 | 26943 ft | 380 kts | 234° |
| 2026-05-08 12:57 | 45.73257 | 0.86176 | 26944 ft | 380 kts | 234° |
| 2026-05-08 12:57 | 45.71702 | 0.83117 | 26945 ft | 380 kts | 234° |
| 2026-05-08 12:57 | 45.70144 | 0.80052 | 26946 ft | 381 kts | 234° |
| 2026-05-08 12:58 | 45.68586 | 0.76992 | 26943 ft | 381 kts | 234° |
| 2026-05-08 12:58 | 45.67023 | 0.73932 | 26931 ft | 380 kts | 234° |
| 2026-05-08 12:58 | 45.65473 | 0.70909 | 26683 ft | 372 kts | 234° |
| 2026-05-08 12:58 | 45.63958 | 0.67960 | 26430 ft | 365 kts | 234° |
| 2026-05-08 12:59 | 45.62461 | 0.65051 | 26178 ft | 362 kts | 234° |
| 2026-05-08 12:59 | 45.60973 | 0.62152 | 25925 ft | 361 kts | 234° |
| 2026-05-08 12:59 | 45.59490 | 0.59267 | 25678 ft | 360 kts | 233° |
| 2026-05-08 12:59 | 45.58006 | 0.56391 | 25432 ft | 359 kts | 233° |
| 2026-05-08 13:00 | 45.56528 | 0.53523 | 25182 ft | 358 kts | 233° |
| 2026-05-08 13:00 | 45.55057 | 0.50668 | 24937 ft | 355 kts | 233° |
| 2026-05-08 13:00 | 45.53619 | 0.47881 | 24543 ft | 352 kts | 233° |
| 2026-05-08 13:00 | 45.52170 | 0.45074 | 24091 ft | 351 kts | 233° |
| 2026-05-08 13:01 | 45.50723 | 0.42280 | 23656 ft | 350 kts | 232° |
| 2026-05-08 13:01 | 45.49277 | 0.39492 | 23159 ft | 350 kts | 232° |
| 2026-05-08 13:01 | 45.47835 | 0.36712 | 22712 ft | 347 kts | 232° |
| 2026-05-08 13:01 | 45.46402 | 0.33955 | 22278 ft | 345 kts | 232° |
| 2026-05-08 13:02 | 45.44983 | 0.31220 | 21845 ft | 343 kts | 232° |
| 2026-05-08 13:02 | 45.43569 | 0.28497 | 21405 ft | 341 kts | 232° |
| 2026-05-08 13:02 | 45.42161 | 0.25786 | 20971 ft | 340 kts | 232° |
| 2026-05-08 13:02 | 45.40754 | 0.23084 | 20539 ft | 339 kts | 232° |
| 2026-05-08 13:03 | 45.39354 | 0.20401 | 20111 ft | 337 kts | 232° |
| 2026-05-08 13:03 | 45.37958 | 0.17731 | 19685 ft | 336 kts | 231° |
| 2026-05-08 13:03 | 45.36565 | 0.15072 | 19264 ft | 335 kts | 231° |
| 2026-05-08 13:03 | 45.35179 | 0.12423 | 18839 ft | 334 kts | 231° |
| 2026-05-08 13:04 | 45.33801 | 0.09761 | 18378 ft | 335 kts | 232° |
| 2026-05-08 13:04 | 45.32429 | 0.07085 | 17876 ft | 335 kts | 232° |
| 2026-05-08 13:04 | 45.31065 | 0.04414 | 17411 ft | 334 kts | 232° |
| 2026-05-08 13:04 | 45.29702 | 0.01750 | 16953 ft | 333 kts | 232° |
| 2026-05-08 13:05 | 45.28344 | -0.00904 | 16501 ft | 332 kts | 232° |
| 2026-05-08 13:05 | 45.26986 | -0.03549 | 16044 ft | 332 kts | 232° |
| 2026-05-08 13:05 | 45.25621 | -0.06201 | 15584 ft | 332 kts | 232° |
| 2026-05-08 13:05 | 45.24263 | -0.08840 | 15217 ft | 330 kts | 232° |
| 2026-05-08 13:06 | 45.22908 | -0.11469 | 14781 ft | 329 kts | 232° |
| 2026-05-08 13:06 | 45.21566 | -0.14070 | 14442 ft | 324 kts | 232° |
| 2026-05-08 13:06 | 45.20245 | -0.16628 | 13809 ft | 319 kts | 232° |
| 2026-05-08 13:06 | 45.18952 | -0.19129 | 13328 ft | 309 kts | 232° |
| 2026-05-08 13:07 | 45.17688 | -0.21569 | 12904 ft | 308 kts | 231° |
| 2026-05-08 13:07 | 45.16344 | -0.23915 | 12482 ft | 306 kts | 223° |
| 2026-05-08 13:07 | 45.14850 | -0.26061 | 12056 ft | 306 kts | 223° |
| 2026-05-08 13:07 | 45.13358 | -0.28205 | 11643 ft | 305 kts | 223° |
| 2026-05-08 13:08 | 45.11869 | -0.30351 | 11220 ft | 306 kts | 223° |
| 2026-05-08 13:08 | 45.10390 | -0.32520 | 10800 ft | 306 kts | 227° |
| 2026-05-08 13:08 | 45.09235 | -0.35046 | 10471 ft | 306 kts | 243° |
| 2026-05-08 13:08 | 45.08504 | -0.37808 | 10342 ft | 297 kts | 248° |
| 2026-05-08 13:09 | 45.07805 | -0.40547 | 10101 ft | 292 kts | 247° |
| 2026-05-08 13:09 | 45.07112 | -0.43233 | 9790 ft | 290 kts | 247° |
| 2026-05-08 13:09 | 45.06421 | -0.45897 | 9435 ft | 288 kts | 247° |
| 2026-05-08 13:09 | 45.05729 | -0.48550 | 9055 ft | 287 kts | 247° |
| 2026-05-08 13:10 | 45.05042 | -0.51181 | 8539 ft | 283 kts | 247° |
| 2026-05-08 13:10 | 45.04363 | -0.53791 | 7865 ft | 282 kts | 247° |
| 2026-05-08 13:10 | 45.03687 | -0.56390 | 7269 ft | 281 kts | 247° |
| 2026-05-08 13:10 | 45.03011 | -0.58986 | 6850 ft | 282 kts | 247° |
| 2026-05-08 13:11 | 45.02335 | -0.61575 | 6460 ft | 280 kts | 247° |
| 2026-05-08 13:11 | 45.01663 | -0.64157 | 6083 ft | 280 kts | 247° |
| 2026-05-08 13:11 | 45.00993 | -0.66728 | 5692 ft | 278 kts | 247° |
| 2026-05-08 13:11 | 45.00333 | -0.69259 | 5319 ft | 278 kts | 247° |
| 2026-05-08 13:12 | 44.99661 | -0.71827 | 4920 ft | 279 kts | 247° |
| 2026-05-08 13:12 | 44.98994 | -0.74384 | 4536 ft | 276 kts | 247° |
| 2026-05-08 13:12 | 44.98333 | -0.76924 | 4152 ft | 275 kts | 247° |
| 2026-05-08 13:12 | 44.97676 | -0.79442 | 3773 ft | 272 kts | 247° |
| 2026-05-08 13:13 | 44.97020 | -0.81945 | 3400 ft | 271 kts | 248° |
| 2026-05-08 13:13 | 44.96375 | -0.84410 | 3195 ft | 263 kts | 247° |
| 2026-05-08 13:13 | 44.95755 | -0.86781 | 3076 ft | 252 kts | 247° |
| 2026-05-08 13:13 | 44.94946 | -0.88902 | 2931 ft | 241 kts | 227° |
| 2026-05-08 13:14 | 44.93704 | -0.90408 | 2699 ft | 235 kts | 207° |
| 2026-05-08 13:14 | 44.92172 | -0.91205 | 2392 ft | 232 kts | 192° |
| 2026-05-08 13:14 | 44.90632 | -0.91817 | 2236 ft | 227 kts | 192° |
| 2026-05-08 13:14 | 44.89125 | -0.92405 | 2107 ft | 221 kts | 187° |
| 2026-05-08 13:15 | 44.87694 | -0.92115 | 2012 ft | 207 kts | 146° |
| 2026-05-08 13:15 | 44.86846 | -0.90607 | 2006 ft | 195 kts | 109° |
| 2026-05-08 13:15 | 44.86512 | -0.88794 | 2012 ft | 188 kts | 108° |
| 2026-05-08 13:15 | 44.86152 | -0.87028 | 2007 ft | 189 kts | 108° |
| 2026-05-08 13:16 | 44.85774 | -0.85259 | 2005 ft | 188 kts | 108° |
| 2026-05-08 13:16 | 44.85417 | -0.83582 | 1983 ft | 169 kts | 109° |
| 2026-05-08 13:16 | 44.85081 | -0.82009 | 1696 ft | 165 kts | 108° |
| 2026-05-08 13:16 | 44.84754 | -0.80478 | 1420 ft | 160 kts | 108° |
| 2026-05-08 13:17 | 44.84442 | -0.79002 | 1178 ft | 155 kts | 109° |
| 2026-05-08 13:17 | 44.84136 | -0.77556 | 942 ft | 153 kts | 107° |
| 2026-05-08 13:17 | 44.83839 | -0.76139 | 683 ft | 149 kts | 108° |
| 2026-05-08 13:17 | 44.83544 | -0.74736 | 496 ft | 150 kts | 105° |
| 2026-05-08 13:18 | 44.83249 | -0.73328 | 263 ft | 150 kts | 107° |
| 2026-05-08 13:18 | 44.82957 | -0.71972 | 164 ft | 132 kts | 106° |
| 2026-05-08 13:18 | 44.82744 | -0.70968 | 154 ft | 82 kts | 107° |
| 2026-05-08 13:18 | 44.82629 | -0.70426 | 162 ft | 38 kts | 105° |
| 2026-05-08 13:19 | 44.82570 | -0.70146 | 162 ft | 23 kts | 107° |
| 2026-05-08 13:19 | 44.82575 | -0.69987 | 161 ft | 15 kts | 34° |
| 2026-05-08 13:19 | 44.82650 | -0.69954 | 159 ft | 8 kts | 15° |
| 2026-05-08 13:19 | 44.82703 | -0.69934 | 159 ft | 7 kts | 14° |
| 2026-05-08 13:20 | 44.82717 | -0.69875 | 159 ft | 8 kts | 104° |
| 2026-05-08 13:20 | 44.82704 | -0.69782 | 159 ft | 11 kts | 79° |
| 2026-05-08 13:20 | 44.82762 | -0.69780 | 159 ft | 12 kts | 291° |
| 2026-05-08 13:20 | 44.82782 | -0.69876 | 159 ft | 9 kts | 286° |
| 2026-05-08 13:21 | 44.82798 | -0.69956 | 159 ft | 6 kts | 285° |
| 2026-05-08 13:21 | 44.82828 | -0.69979 | 159 ft | 6 kts | 8° |
| 2026-05-08 13:21 | 44.82852 | -0.69970 | 159 ft | 2 kts | 15° |
| 2026-05-08 13:21 | 44.82857 | -0.69968 | 159 ft | 0 kts | 15° |